sensor_id;sensor_type;location;lat;lon;timestamp;pressure;altitude;pressure_sealevel;temperature;humidity
49827;BME280;35715;51.570;6.036;2022-11-15T00:00:53;100780.75;;;9.23;89.32
49827;BME280;35715;51.570;6.036;2022-11-15T00:03:24;100772.69;;;9.30;89.05
49827;BME280;35715;51.570;6.036;2022-11-15T00:05:54;100778.16;;;9.35;89.02
49827;BME280;35715;51.570;6.036;2022-11-15T00:08:19;100771.53;;;9.38;89.30
49827;BME280;35715;51.570;6.036;2022-11-15T00:10:56;100775.25;;;9.30;90.34
49827;BME280;35715;51.570;6.036;2022-11-15T00:13:21;100765.94;;;9.32;90.21
49827;BME280;35715;51.570;6.036;2022-11-15T00:15:58;100766.28;;;9.37;90.27
49827;BME280;35715;51.570;6.036;2022-11-15T00:18:24;100768.19;;;9.39;90.14
49827;BME280;35715;51.570;6.036;2022-11-15T00:20:49;100759.91;;;9.44;90.21
49827;BME280;35715;51.570;6.036;2022-11-15T00:23:14;100763.25;;;9.43;90.61
49827;BME280;35715;51.570;6.036;2022-11-15T00:25:44;100763.78;;;9.50;90.63
49827;BME280;35715;51.570;6.036;2022-11-15T00:28:09;100762.22;;;9.52;90.84
49827;BME280;35715;51.570;6.036;2022-11-15T00:30:34;100757.50;;;9.58;90.99
49827;BME280;35715;51.570;6.036;2022-11-15T00:33:06;100754.22;;;9.61;90.95
49827;BME280;35715;51.570;6.036;2022-11-15T00:35:39;100748.31;;;9.62;90.85
49827;BME280;35715;51.570;6.036;2022-11-15T00:38:04;100748.09;;;9.59;90.85
49827;BME280;35715;51.570;6.036;2022-11-15T00:40:29;100746.19;;;9.56;91.31
49827;BME280;35715;51.570;6.036;2022-11-15T00:42:55;100743.59;;;9.56;91.59
49827;BME280;35715;51.570;6.036;2022-11-15T00:45:27;100740.69;;;9.64;91.24
49827;BME280;35715;51.570;6.036;2022-11-15T00:47:52;100739.78;;;9.63;91.37
49827;BME280;35715;51.570;6.036;2022-11-15T00:50:18;100734.44;;;9.60;91.76
49827;BME280;35715;51.570;6.036;2022-11-15T00:52:43;100743.47;;;9.67;91.80
49827;BME280;35715;51.570;6.036;2022-11-15T00:55:19;100735.06;;;9.69;91.29
49827;BME280;35715;51.570;6.036;2022-11-15T00:57:45;100737.44;;;9.66;91.83
49827;BME280;35715;51.570;6.036;2022-11-15T01:00:11;100736.16;;;9.73;91.64
49827;BME280;35715;51.570;6.036;2022-11-15T01:02:36;100739.50;;;9.72;92.18
49827;BME280;35715;51.570;6.036;2022-11-15T01:05:04;100740.53;;;9.74;92.35
49827;BME280;35715;51.570;6.036;2022-11-15T01:07:30;100731.22;;;9.76;92.43
49827;BME280;35715;51.570;6.036;2022-11-15T01:09:55;100735.81;;;9.80;92.53
49827;BME280;35715;51.570;6.036;2022-11-15T01:12:21;100729.16;;;9.84;92.33
49827;BME280;35715;51.570;6.036;2022-11-15T01:14:46;100729.06;;;9.82;92.89
49827;BME280;35715;51.570;6.036;2022-11-15T01:17:18;100734.72;;;9.90;92.63
49827;BME280;35715;51.570;6.036;2022-11-15T01:19:43;100729.78;;;9.93;92.86
49827;BME280;35715;51.570;6.036;2022-11-15T01:22:08;100732.38;;;9.93;93.45
49827;BME280;35715;51.570;6.036;2022-11-15T01:24:34;100731.22;;;10.01;93.65
49827;BME280;35715;51.570;6.036;2022-11-15T01:26:59;100721.31;;;10.07;93.71
49827;BME280;35715;51.570;6.036;2022-11-15T01:29:24;100718.75;;;10.07;94.40
49827;BME280;35715;51.570;6.036;2022-11-15T01:31:50;100717.88;;;10.07;95.05
49827;BME280;35715;51.570;6.036;2022-11-15T01:34:15;100708.75;;;10.12;94.58
49827;BME280;35715;51.570;6.036;2022-11-15T01:36:42;100708.84;;;10.13;94.87
49827;BME280;35715;51.570;6.036;2022-11-15T01:39:08;100710.75;;;10.16;95.19
49827;BME280;35715;51.570;6.036;2022-11-15T01:41:33;100706.56;;;10.18;95.27
49827;BME280;35715;51.570;6.036;2022-11-15T01:47:11;100707.97;;;10.26;94.92
49827;BME280;35715;51.570;6.036;2022-11-15T01:49:40;100704.31;;;10.23;95.73
49827;BME280;35715;51.570;6.036;2022-11-15T01:52:11;100698.47;;;10.25;95.90
49827;BME280;35715;51.570;6.036;2022-11-15T01:54:38;100700.38;;;10.28;95.93
49827;BME280;35715;51.570;6.036;2022-11-15T01:57:06;100701.59;;;10.33;95.64
49827;BME280;35715;51.570;6.036;2022-11-15T01:59:35;100696.63;;;10.36;95.70
49827;BME280;35715;51.570;6.036;2022-11-15T02:02:02;100690.59;;;10.36;96.01
49827;BME280;35715;51.570;6.036;2022-11-15T02:04:37;100688.09;;;10.37;96.24
49827;BME280;35715;51.570;6.036;2022-11-15T02:07:21;100696.63;;;10.36;96.78
49827;BME280;35715;51.570;6.036;2022-11-15T02:09:46;100698.53;;;10.39;96.46
49827;BME280;35715;51.570;6.036;2022-11-15T02:12:15;100691.78;;;10.41;96.99
49827;BME280;35715;51.570;6.036;2022-11-15T02:14:43;100693.50;;;10.28;97.84
49827;BME280;35715;51.570;6.036;2022-11-15T02:29:11;100688.72;;;10.46;97.52
49827;BME280;35715;51.570;6.036;2022-11-15T02:34:35;100696.44;;;10.46;98.01
49827;BME280;35715;51.570;6.036;2022-11-15T02:37:33;100690.38;;;10.46;97.94
49827;BME280;35715;51.570;6.036;2022-11-15T02:40:12;100691.47;;;10.50;97.73
49827;BME280;35715;51.570;6.036;2022-11-15T02:42:49;100676.78;;;10.48;97.95
49827;BME280;35715;51.570;6.036;2022-11-15T02:45:51;100675.81;;;10.46;97.78
49827;BME280;35715;51.570;6.036;2022-11-15T02:48:20;100687.41;;;10.53;98.16
49827;BME280;35715;51.570;6.036;2022-11-15T02:50:47;100670.38;;;10.55;97.88
49827;BME280;35715;51.570;6.036;2022-11-15T02:53:14;100676.50;;;10.57;97.71
49827;BME280;35715;51.570;6.036;2022-11-15T02:55:51;100667.97;;;10.58;97.79
49827;BME280;35715;51.570;6.036;2022-11-15T03:04:07;100658.44;;;10.57;97.95
49827;BME280;35715;51.570;6.036;2022-11-15T03:07:01;100664.38;;;10.56;97.84
49827;BME280;35715;51.570;6.036;2022-11-15T03:09:46;100656.56;;;10.55;98.80
49827;BME280;35715;51.570;6.036;2022-11-15T03:12:25;100656.56;;;10.55;98.68
49827;BME280;35715;51.570;6.036;2022-11-15T03:15:05;100657.56;;;10.57;99.03
49827;BME280;35715;51.570;6.036;2022-11-15T03:17:51;100656.06;;;10.60;98.95
49827;BME280;35715;51.570;6.036;2022-11-15T03:20:20;100659.53;;;10.61;99.44
49827;BME280;35715;51.570;6.036;2022-11-15T03:22:47;100653.78;;;10.65;99.56
49827;BME280;35715;51.570;6.036;2022-11-15T03:25:21;100653.19;;;10.69;99.41
49827;BME280;35715;51.570;6.036;2022-11-15T03:27:50;100643.94;;;10.73;99.34
49827;BME280;35715;51.570;6.036;2022-11-15T03:30:18;100645.00;;;10.76;99.19
49827;BME280;35715;51.570;6.036;2022-11-15T03:32:50;100644.22;;;10.77;99.31
49827;BME280;35715;51.570;6.036;2022-11-15T03:35:25;100649.69;;;10.82;98.81
49827;BME280;35715;51.570;6.036;2022-11-15T03:40:22;100642.75;;;10.81;99.71
49827;BME280;35715;51.570;6.036;2022-11-15T03:43:02;100640.56;;;10.87;99.08
49827;BME280;35715;51.570;6.036;2022-11-15T03:49:00;100640.56;;;10.87;99.84
49827;BME280;35715;51.570;6.036;2022-11-15T03:51:29;100640.03;;;10.93;99.81
49827;BME280;35715;51.570;6.036;2022-11-15T03:53:55;100640.13;;;10.94;99.95
49827;BME280;35715;51.570;6.036;2022-11-15T03:56:33;100647.97;;;10.96;99.65
49827;BME280;35715;51.570;6.036;2022-11-15T03:58:59;100649.06;;;10.99;100.00
49827;BME280;35715;51.570;6.036;2022-11-15T04:01:24;100645.97;;;11.05;100.00
49827;BME280;35715;51.570;6.036;2022-11-15T04:03:49;100650.53;;;11.09;99.85
49827;BME280;35715;51.570;6.036;2022-11-15T04:06:16;100648.13;;;11.12;99.93
49827;BME280;35715;51.570;6.036;2022-11-15T04:08:41;100649.03;;;11.13;100.00
49827;BME280;35715;51.570;6.036;2022-11-15T04:11:06;100655.97;;;11.14;100.00
49827;BME280;35715;51.570;6.036;2022-11-15T04:13:32;100657.16;;;11.19;99.64
49827;BME280;35715;51.570;6.036;2022-11-15T04:15:57;100652.09;;;11.21;99.43
49827;BME280;35715;51.570;6.036;2022-11-15T04:18:23;100652.19;;;11.22;99.67
49827;BME280;35715;51.570;6.036;2022-11-15T04:20:49;100652.38;;;11.25;99.59
49827;BME280;35715;51.570;6.036;2022-11-15T04:23:33;100653.25;;;11.26;99.78
49827;BME280;35715;51.570;6.036;2022-11-15T04:26:40;100649.06;;;11.28;99.11
49827;BME280;35715;51.570;6.036;2022-11-15T04:29:06;100647.50;;;11.30;99.39
49827;BME280;35715;51.570;6.036;2022-11-15T04:31:49;100641.50;;;11.31;99.56
49827;BME280;35715;51.570;6.036;2022-11-15T04:34:15;100637.84;;;11.27;100.00
49827;BME280;35715;51.570;6.036;2022-11-15T04:36:40;100643.81;;;11.26;100.00
49827;BME280;35715;51.570;6.036;2022-11-15T04:39:24;100640.44;;;11.27;100.00
49827;BME280;35715;51.570;6.036;2022-11-15T04:41:50;100642.25;;;11.28;100.00
49827;BME280;35715;51.570;6.036;2022-11-15T04:44:15;100637.34;;;11.33;100.00
49827;BME280;35715;51.570;6.036;2022-11-15T04:46:41;100642.59;;;11.34;100.00
49827;BME280;35715;51.570;6.036;2022-11-15T04:49:06;100645.28;;;11.36;100.00
49827;BME280;35715;51.570;6.036;2022-11-15T04:51:32;100643.41;;;11.33;100.00
49827;BME280;35715;51.570;6.036;2022-11-15T04:53:57;100641.00;;;11.36;100.00
49827;BME280;35715;51.570;6.036;2022-11-15T04:56:29;100636.75;;;11.37;100.00
49827;BME280;35715;51.570;6.036;2022-11-15T04:58:55;100636.56;;;11.34;100.00
49827;BME280;35715;51.570;6.036;2022-11-15T05:01:20;100637.16;;;11.30;100.00
49827;BME280;35715;51.570;6.036;2022-11-15T05:03:45;100631.59;;;11.37;100.00
49827;BME280;35715;51.570;6.036;2022-11-15T05:06:32;100636.22;;;11.43;100.00
49827;BME280;35715;51.570;6.036;2022-11-15T05:08:58;100634.53;;;11.43;100.00
49827;BME280;35715;51.570;6.036;2022-11-15T05:11:23;100634.53;;;11.43;100.00
49827;BME280;35715;51.570;6.036;2022-11-15T05:13:49;100628.47;;;11.43;100.00
49827;BME280;35715;51.570;6.036;2022-11-15T05:16:18;100630.06;;;11.41;100.00
49827;BME280;35715;51.570;6.036;2022-11-15T05:18:44;100625.88;;;11.43;100.00
49827;BME280;35715;51.570;6.036;2022-11-15T05:21:12;100631.88;;;11.42;100.00
49827;BME280;35715;51.570;6.036;2022-11-15T05:23:38;100639.63;;;11.42;100.00
49827;BME280;35715;51.570;6.036;2022-11-15T05:26:11;100636.75;;;11.37;100.00
49827;BME280;35715;51.570;6.036;2022-11-15T05:28:37;100630.94;;;11.41;100.00
49827;BME280;35715;51.570;6.036;2022-11-15T05:31:08;100638.19;;;11.47;100.00
49827;BME280;35715;51.570;6.036;2022-11-15T05:33:34;100637.50;;;11.49;100.00
49827;BME280;35715;51.570;6.036;2022-11-15T05:36:34;100627.94;;;11.48;100.00
49827;BME280;35715;51.570;6.036;2022-11-15T05:39:04;100622.88;;;11.50;100.00
49827;BME280;35715;51.570;6.036;2022-11-15T05:41:45;100622.16;;;11.52;100.00
49827;BME280;35715;51.570;6.036;2022-11-15T05:44:15;100614.41;;;11.52;100.00
49827;BME280;35715;51.570;6.036;2022-11-15T05:46:44;100612.72;;;11.53;100.00
49827;BME280;35715;51.570;6.036;2022-11-15T05:49:13;100617.97;;;11.54;100.00
49827;BME280;35715;51.570;6.036;2022-11-15T05:51:41;100612.81;;;11.54;100.00
49827;BME280;35715;51.570;6.036;2022-11-15T05:54:07;100609.44;;;11.56;100.00
49827;BME280;35715;51.570;6.036;2022-11-15T05:56:34;100612.03;;;11.56;100.00
49827;BME280;35715;51.570;6.036;2022-11-15T05:59:00;100617.28;;;11.57;100.00
49827;BME280;35715;51.570;6.036;2022-11-15T06:01:26;100614.59;;;11.56;100.00
49827;BME280;35715;51.570;6.036;2022-11-15T06:03:52;100624.03;;;11.55;100.00
49827;BME280;35715;51.570;6.036;2022-11-15T06:06:22;100627.53;;;11.56;100.00
49827;BME280;35715;51.570;6.036;2022-11-15T06:08:48;100627.53;;;11.56;100.00
49827;BME280;35715;51.570;6.036;2022-11-15T06:11:13;100622.44;;;11.57;100.00
49827;BME280;35715;51.570;6.036;2022-11-15T06:13:39;100621.75;;;11.60;100.00
49827;BME280;35715;51.570;6.036;2022-11-15T06:16:13;100624.34;;;11.60;100.00
49827;BME280;35715;51.570;6.036;2022-11-15T06:18:38;100624.41;;;11.61;100.00
49827;BME280;35715;51.570;6.036;2022-11-15T06:21:04;100614.09;;;11.61;100.00
49827;BME280;35715;51.570;6.036;2022-11-15T06:23:34;100616.56;;;11.60;100.00
49827;BME280;35715;51.570;6.036;2022-11-15T06:26:16;100619.78;;;11.56;100.00
49827;BME280;35715;51.570;6.036;2022-11-15T06:28:41;100619.03;;;11.58;100.00
49827;BME280;35715;51.570;6.036;2022-11-15T06:31:09;100614.00;;;11.60;100.00
49827;BME280;35715;51.570;6.036;2022-11-15T06:33:34;100617.47;;;11.60;100.00
49827;BME280;35715;51.570;6.036;2022-11-15T06:36:10;100614.00;;;11.60;100.00
49827;BME280;35715;51.570;6.036;2022-11-15T06:38:39;100610.59;;;11.61;100.00
49827;BME280;35715;51.570;6.036;2022-11-15T06:41:06;100617.63;;;11.63;100.00
49827;BME280;35715;51.570;6.036;2022-11-15T06:43:33;100617.72;;;11.65;100.00
49827;BME280;35715;51.570;6.036;2022-11-15T06:46:01;100616.75;;;11.63;100.00
49827;BME280;35715;51.570;6.036;2022-11-15T06:48:27;100615.16;;;11.65;100.00
49827;BME280;35715;51.570;6.036;2022-11-15T06:50:54;100626.47;;;11.67;100.00
49827;BME280;35715;51.570;6.036;2022-11-15T06:53:20;100627.28;;;11.66;100.00
49827;BME280;35715;51.570;6.036;2022-11-15T06:55:49;100635.81;;;11.65;100.00
49827;BME280;35715;51.570;6.036;2022-11-15T06:58:15;100639.28;;;11.65;100.00
49827;BME280;35715;51.570;6.036;2022-11-15T07:00:40;100645.97;;;11.62;100.00
49827;BME280;35715;51.570;6.036;2022-11-15T07:03:06;100640.09;;;11.64;100.00
49827;BME280;35715;51.570;6.036;2022-11-15T07:05:34;100655.63;;;11.64;100.00
49827;BME280;35715;51.570;6.036;2022-11-15T07:08:00;100652.22;;;11.65;100.00
49827;BME280;35715;51.570;6.036;2022-11-15T07:10:25;100669.41;;;11.65;100.00
49827;BME280;35715;51.570;6.036;2022-11-15T07:12:52;100665.13;;;11.65;100.00
49827;BME280;35715;51.570;6.036;2022-11-15T07:15:32;100669.16;;;11.60;100.00
49827;BME280;35715;51.570;6.036;2022-11-15T07:18:00;100678.47;;;11.58;100.00
49827;BME280;35715;51.570;6.036;2022-11-15T07:20:26;100678.38;;;11.57;100.00
49827;BME280;35715;51.570;6.036;2022-11-15T07:22:59;100682.56;;;11.54;100.00
49827;BME280;35715;51.570;6.036;2022-11-15T07:25:31;100680.00;;;11.54;100.00
49827;BME280;35715;51.570;6.036;2022-11-15T07:28:00;100685.06;;;11.53;100.00
49827;BME280;35715;51.570;6.036;2022-11-15T07:30:26;100686.03;;;11.55;100.00
49827;BME280;35715;51.570;6.036;2022-11-15T07:32:56;100673.94;;;11.54;100.00
49827;BME280;35715;51.570;6.036;2022-11-15T07:35:26;100681.78;;;11.56;100.00
49827;BME280;35715;51.570;6.036;2022-11-15T07:37:54;100680.97;;;11.57;100.00
49827;BME280;35715;51.570;6.036;2022-11-15T07:40:20;100694.09;;;11.60;100.00
49827;BME280;35715;51.570;6.036;2022-11-15T07:42:45;100697.66;;;11.62;100.00
49827;BME280;35715;51.570;6.036;2022-11-15T07:45:46;100699.28;;;11.60;100.00
49827;BME280;35715;51.570;6.036;2022-11-15T07:48:11;100692.44;;;11.47;100.00
49827;BME280;35715;51.570;6.036;2022-11-15T07:50:41;100697.78;;;11.50;100.00
49827;BME280;35715;51.570;6.036;2022-11-15T07:53:08;100703.84;;;11.50;100.00
49827;BME280;35715;51.570;6.036;2022-11-15T07:55:34;100695.13;;;11.48;100.00
49827;BME280;35715;51.570;6.036;2022-11-15T07:58:07;100704.75;;;11.51;100.00
49827;BME280;35715;51.570;6.036;2022-11-15T08:00:33;100691.75;;;11.49;100.00
49827;BME280;35715;51.570;6.036;2022-11-15T08:03:04;100699.41;;;11.48;100.00
49827;BME280;35715;51.570;6.036;2022-11-15T08:05:38;100695.13;;;11.48;100.00
49827;BME280;35715;51.570;6.036;2022-11-15T08:08:06;100709.75;;;11.48;100.00
49827;BME280;35715;51.570;6.036;2022-11-15T08:10:32;100710.63;;;11.48;100.00
49827;BME280;35715;51.570;6.036;2022-11-15T08:12:59;100701.25;;;11.50;100.00
49827;BME280;35715;51.570;6.036;2022-11-15T08:15:27;100695.41;;;11.53;100.00
49827;BME280;35715;51.570;6.036;2022-11-15T08:18:05;100703.16;;;11.53;100.00
49827;BME280;35715;51.570;6.036;2022-11-15T08:20:31;100706.63;;;11.53;100.00
49827;BME280;35715;51.570;6.036;2022-11-15T08:22:58;100698.97;;;11.55;100.00
49827;BME280;35715;51.570;6.036;2022-11-15T08:25:26;100703.53;;;11.59;100.00
49827;BME280;35715;51.570;6.036;2022-11-15T08:27:54;100702.81;;;11.62;100.00
49827;BME280;35715;51.570;6.036;2022-11-15T08:30:20;100692.16;;;11.70;100.00
49827;BME280;35715;51.570;6.036;2022-11-15T08:32:46;100690.03;;;11.78;100.00
49827;BME280;35715;51.570;6.036;2022-11-15T08:35:22;100685.84;;;11.80;100.00
49827;BME280;35715;51.570;6.036;2022-11-15T08:37:47;100685.31;;;11.86;100.00
49827;BME280;35715;51.570;6.036;2022-11-15T08:40:13;100679.75;;;11.93;100.00
49827;BME280;35715;51.570;6.036;2022-11-15T08:42:39;100681.00;;;12.00;100.00
49827;BME280;35715;51.570;6.036;2022-11-15T08:45:07;100687.97;;;12.01;100.00
49827;BME280;35715;51.570;6.036;2022-11-15T08:47:32;100687.88;;;11.99;100.00
49827;BME280;35715;51.570;6.036;2022-11-15T08:49:58;100672.88;;;11.94;100.00
49827;BME280;35715;51.570;6.036;2022-11-15T08:52:26;100688.28;;;11.92;100.00
49827;BME280;35715;51.570;6.036;2022-11-15T08:55:01;100691.47;;;11.88;100.00
49827;BME280;35715;51.570;6.036;2022-11-15T08:57:28;100693.88;;;11.85;100.00
49827;BME280;35715;51.570;6.036;2022-11-15T08:59:55;100695.47;;;11.83;100.00
49827;BME280;35715;51.570;6.036;2022-11-15T09:02:29;100696.69;;;11.75;100.00
49827;BME280;35715;51.570;6.036;2022-11-15T09:04:55;100693.94;;;11.71;100.00
49827;BME280;35715;51.570;6.036;2022-11-15T09:07:21;100688.84;;;11.73;100.00
49827;BME280;35715;51.570;6.036;2022-11-15T09:09:48;100682.88;;;11.74;100.00
49827;BME280;35715;51.570;6.036;2022-11-15T09:12:26;100680.81;;;11.68;100.00
49827;BME280;35715;51.570;6.036;2022-11-15T09:14:51;100677.53;;;11.71;100.00
49827;BME280;35715;51.570;6.036;2022-11-15T09:17:16;100677.72;;;11.74;100.00
49827;BME280;35715;51.570;6.036;2022-11-15T09:19:42;100668.09;;;11.86;100.00
49827;BME280;35715;51.570;6.036;2022-11-15T09:22:18;100662.56;;;12.09;100.00
49827;BME280;35715;51.570;6.036;2022-11-15T09:24:45;100657.38;;;12.23;100.00
49827;BME280;35715;51.570;6.036;2022-11-15T09:27:13;100662.81;;;12.28;100.00
49827;BME280;35715;51.570;6.036;2022-11-15T09:29:38;100653.28;;;12.27;99.22
49827;BME280;35715;51.570;6.036;2022-11-15T09:32:04;100658.53;;;12.29;98.95
49827;BME280;35715;51.570;6.036;2022-11-15T09:34:29;100649.44;;;12.20;98.49
49827;BME280;35715;51.570;6.036;2022-11-15T09:36:56;100647.94;;;12.24;98.48
49827;BME280;35715;51.570;6.036;2022-11-15T09:39:22;100644.63;;;12.27;97.93
49827;BME280;35715;51.570;6.036;2022-11-15T09:42:20;100638.63;;;12.28;96.53
49827;BME280;35715;51.570;6.036;2022-11-15T09:45:13;100634.34;;;12.43;95.88
49827;BME280;35715;51.570;6.036;2022-11-15T09:50:28;100620.28;;;13.17;92.32
49827;BME280;35715;51.570;6.036;2022-11-15T09:52:56;100625.19;;;13.12;91.22
49827;BME280;35715;51.570;6.036;2022-11-15T09:55:53;100613.59;;;13.54;88.12
49827;BME280;35715;51.570;6.036;2022-11-15T09:58:58;100618.25;;;14.48;82.34
49827;BME280;35715;51.570;6.036;2022-11-15T10:04:47;100607.88;;;14.48;82.09
49827;BME280;35715;51.570;6.036;2022-11-15T10:10:36;100608.53;;;15.37;78.45
49827;BME280;35715;51.570;6.036;2022-11-15T10:13:25;100604.84;;;15.72;68.77
49827;BME280;35715;51.570;6.036;2022-11-15T10:24:42;100593.00;;;18.63;61.42
49827;BME280;35715;51.570;6.036;2022-11-15T10:27:27;100577.94;;;19.13;56.75
49827;BME280;35715;51.570;6.036;2022-11-15T10:29:54;100585.00;;;19.48;56.79
49827;BME280;35715;51.570;6.036;2022-11-15T10:32:20;100579.88;;;19.84;54.81
49827;BME280;35715;51.570;6.036;2022-11-15T10:34:47;100574.34;;;20.45;52.11
49827;BME280;35715;51.570;6.036;2022-11-15T10:37:35;100579.63;;;20.47;51.13
49827;BME280;35715;51.570;6.036;2022-11-15T10:40:27;100579.75;;;20.51;46.45
49827;BME280;35715;51.570;6.036;2022-11-15T10:43:14;100566.44;;;21.23;47.07
49827;BME280;35715;51.570;6.036;2022-11-15T10:45:40;100565.13;;;21.47;47.31
49827;BME280;35715;51.570;6.036;2022-11-15T10:50:37;100560.78;;;22.53;42.57
49827;BME280;35715;51.570;6.036;2022-11-15T10:53:04;100563.69;;;22.71;43.10
49827;BME280;35715;51.570;6.036;2022-11-15T10:56:12;100557.59;;;21.62;41.38
49827;BME280;35715;51.570;6.036;2022-11-15T10:58:41;100559.97;;;20.26;45.10
49827;BME280;35715;51.570;6.036;2022-11-15T11:01:19;100548.63;;;19.57;45.18
49827;BME280;35715;51.570;6.036;2022-11-15T11:04:01;100550.38;;;19.25;45.71
49827;BME280;35715;51.570;6.036;2022-11-15T11:06:50;100555.91;;;18.46;45.96
49827;BME280;35715;51.570;6.036;2022-11-15T11:09:39;100563.13;;;18.26;46.78
49827;BME280;35715;51.570;6.036;2022-11-15T11:12:10;100548.63;;;18.65;48.17
49827;BME280;35715;51.570;6.036;2022-11-15T11:14:38;100547.50;;;18.56;47.49
49827;BME280;35715;51.570;6.036;2022-11-15T11:17:48;100538.75;;;18.85;47.94
49827;BME280;35715;51.570;6.036;2022-11-15T11:20:33;100557.47;;;19.29;45.57
49827;BME280;35715;51.570;6.036;2022-11-15T11:34:35;100516.56;;;20.01;44.79
49827;BME280;35715;51.570;6.036;2022-11-15T11:40:40;100521.31;;;21.42;41.73
49827;BME280;35715;51.570;6.036;2022-11-15T11:46:01;100503.78;;;22.48;41.08
49827;BME280;35715;51.570;6.036;2022-11-15T11:48:41;100496.41;;;21.69;40.48
49827;BME280;35715;51.570;6.036;2022-11-15T11:51:16;100493.75;;;21.66;41.38
49827;BME280;35715;51.570;6.036;2022-11-15T11:56:39;100474.72;;;21.29;41.08
49827;BME280;35715;51.570;6.036;2022-11-15T11:59:33;100469.06;;;20.65;41.37
49827;BME280;35715;51.570;6.036;2022-11-15T12:02:11;100459.97;;;20.47;40.10
49827;BME280;35715;51.570;6.036;2022-11-15T12:04:40;100448.28;;;20.31;41.36
49827;BME280;35715;51.570;6.036;2022-11-15T12:07:25;100459.41;;;19.83;41.68
49827;BME280;35715;51.570;6.036;2022-11-15T12:09:59;100450.47;;;20.11;41.60
49827;BME280;35715;51.570;6.036;2022-11-15T12:15:35;100451.19;;;20.45;41.78
49827;BME280;35715;51.570;6.036;2022-11-15T12:18:02;100450.50;;;20.54;41.10
49827;BME280;35715;51.570;6.036;2022-11-15T12:20:32;100433.78;;;20.47;41.26
49827;BME280;35715;51.570;6.036;2022-11-15T12:23:15;100432.94;;;20.09;40.42
49827;BME280;35715;51.570;6.036;2022-11-15T12:26:08;100421.81;;;19.09;42.32
49827;BME280;35715;51.570;6.036;2022-11-15T12:28:45;100423.22;;;18.36;43.72
49827;BME280;35715;51.570;6.036;2022-11-15T12:31:21;100409.09;;;18.27;43.64
49827;BME280;35715;51.570;6.036;2022-11-15T12:33:48;100412.63;;;18.01;44.76
49827;BME280;35715;51.570;6.036;2022-11-15T12:39:03;100395.63;;;17.32;45.82
49827;BME280;35715;51.570;6.036;2022-11-15T12:41:31;100396.44;;;17.03;47.22
49827;BME280;35715;51.570;6.036;2022-11-15T12:43:57;100388.91;;;16.87;47.36
49827;BME280;35715;51.570;6.036;2022-11-15T12:49:46;100395.59;;;16.56;47.58
49827;BME280;35715;51.570;6.036;2022-11-15T12:52:12;100386.41;;;16.42;47.55
49827;BME280;35715;51.570;6.036;2022-11-15T12:57:29;100374.69;;;16.06;47.26
49827;BME280;35715;51.570;6.036;2022-11-15T13:02:48;100372.53;;;15.94;48.00
49827;BME280;35715;51.570;6.036;2022-11-15T13:18:28;100341.34;;;15.73;48.26
49827;BME280;35715;51.570;6.036;2022-11-15T13:20:53;100332.81;;;15.77;48.54
49827;BME280;35715;51.570;6.036;2022-11-15T13:23:21;100336.44;;;15.81;49.11
49827;BME280;35715;51.570;6.036;2022-11-15T13:28:32;100323.31;;;15.78;49.41
49827;BME280;35715;51.570;6.036;2022-11-15T13:31:00;100311.00;;;15.74;49.76
49827;BME280;35715;51.570;6.036;2022-11-15T13:33:34;100315.53;;;15.78;49.30
49827;BME280;35715;51.570;6.036;2022-11-15T13:36:22;100305.28;;;15.60;49.88
49827;BME280;35715;51.570;6.036;2022-11-15T13:39:23;100301.91;;;15.63;50.13
49827;BME280;35715;51.570;6.036;2022-11-15T13:41:51;100294.56;;;15.52;50.24
49827;BME280;35715;51.570;6.036;2022-11-15T13:44:25;100300.53;;;15.50;50.84
49827;BME280;35715;51.570;6.036;2022-11-15T13:47:09;100295.84;;;15.41;50.69
49827;BME280;35715;51.570;6.036;2022-11-15T13:49:37;100284.56;;;15.40;51.25
49827;BME280;35715;51.570;6.036;2022-11-15T13:52:06;100279.25;;;15.37;51.58
49827;BME280;35715;51.570;6.036;2022-11-15T13:54:47;100274.59;;;15.29;51.63
49827;BME280;35715;51.570;6.036;2022-11-15T14:03:13;100275.34;;;15.03;52.41
49827;BME280;35715;51.570;6.036;2022-11-15T14:05:42;100272.97;;;15.10;52.68
49827;BME280;35715;51.570;6.036;2022-11-15T14:10:45;100263.47;;;15.10;53.21
49827;BME280;35715;51.570;6.036;2022-11-15T14:13:27;100256.44;;;15.07;52.67
49827;BME280;35715;51.570;6.036;2022-11-15T14:16:21;100258.53;;;14.95;53.82
49827;BME280;35715;51.570;6.036;2022-11-15T14:18:57;100245.50;;;14.94;53.50
49827;BME280;35715;51.570;6.036;2022-11-15T14:21:22;100242.72;;;14.89;53.98
49827;BME280;35715;51.570;6.036;2022-11-15T14:23:49;100239.75;;;14.80;53.83
49827;BME280;35715;51.570;6.036;2022-11-15T14:26:34;100243.78;;;14.73;54.31
49827;BME280;35715;51.570;6.036;2022-11-15T14:29:28;100232.88;;;14.61;54.25
49827;BME280;35715;51.570;6.036;2022-11-15T14:32:13;100231.72;;;14.54;55.66
49827;BME280;35715;51.570;6.036;2022-11-15T14:34:39;100234.56;;;14.60;55.85
49827;BME280;35715;51.570;6.036;2022-11-15T14:37:34;100227.34;;;14.53;56.10
49827;BME280;35715;51.570;6.036;2022-11-15T14:40:05;100230.44;;;14.44;56.52
49827;BME280;35715;51.570;6.036;2022-11-15T14:42:31;100217.94;;;14.55;56.43
49827;BME280;35715;51.570;6.036;2022-11-15T14:44:56;100219.44;;;14.50;56.17
49827;BME280;35715;51.570;6.036;2022-11-15T14:47:23;100214.59;;;14.38;57.49
49827;BME280;35715;51.570;6.036;2022-11-15T14:49:51;100214.34;;;14.32;57.54
49827;BME280;35715;51.570;6.036;2022-11-15T14:52:28;100207.84;;;14.20;57.52
49827;BME280;35715;51.570;6.036;2022-11-15T14:55:03;100207.00;;;14.22;57.79
49827;BME280;35715;51.570;6.036;2022-11-15T14:57:34;100195.53;;;14.16;58.20
49827;BME280;35715;51.570;6.036;2022-11-15T15:00:01;100186.81;;;14.14;59.25